sensor_id;sensor_type;location;lat;lon;timestamp;P1;durP1;ratioP1;P2;durP2;ratioP2
82871;SDS011;72646;43.596;1.428;2024-01-30T00:00:34;9.40;;;3.30;;
82871;SDS011;72646;43.596;1.428;2024-01-30T00:03:00;7.60;;;3.13;;
82871;SDS011;72646;43.596;1.428;2024-01-30T00:05:25;8.45;;;3.17;;
82871;SDS011;72646;43.596;1.428;2024-01-30T00:07:51;8.35;;;3.30;;
82871;SDS011;72646;43.596;1.428;2024-01-30T00:10:16;8.18;;;3.17;;
82871;SDS011;72646;43.596;1.428;2024-01-30T00:12:41;8.95;;;3.17;;
82871;SDS011;72646;43.596;1.428;2024-01-30T00:15:07;7.55;;;2.95;;
82871;SDS011;72646;43.596;1.428;2024-01-30T00:17:35;7.07;;;3.05;;
82871;SDS011;72646;43.596;1.428;2024-01-30T00:20:03;6.47;;;2.70;;
82871;SDS011;72646;43.596;1.428;2024-01-30T00:22:31;7.03;;;3.17;;
82871;SDS011;72646;43.596;1.428;2024-01-30T00:24:56;7.68;;;2.90;;
82871;SDS011;72646;43.596;1.428;2024-01-30T00:27:22;8.55;;;3.67;;
82871;SDS011;72646;43.596;1.428;2024-01-30T00:29:47;6.72;;;2.88;;
82871;SDS011;72646;43.596;1.428;2024-01-30T00:32:13;9.32;;;3.40;;
82871;SDS011;72646;43.596;1.428;2024-01-30T00:34:38;7.70;;;3.17;;
82871;SDS011;72646;43.596;1.428;2024-01-30T00:37:04;8.07;;;3.30;;
82871;SDS011;72646;43.596;1.428;2024-01-30T00:39:29;7.70;;;2.83;;
82871;SDS011;72646;43.596;1.428;2024-01-30T00:41:54;9.05;;;3.70;;
82871;SDS011;72646;43.596;1.428;2024-01-30T00:44:20;8.35;;;3.08;;
82871;SDS011;72646;43.596;1.428;2024-01-30T00:46:45;7.57;;;2.90;;
82871;SDS011;72646;43.596;1.428;2024-01-30T00:49:11;8.18;;;3.05;;
82871;SDS011;72646;43.596;1.428;2024-01-30T00:51:36;8.05;;;2.85;;
82871;SDS011;72646;43.596;1.428;2024-01-30T00:54:01;9.23;;;2.90;;
82871;SDS011;72646;43.596;1.428;2024-01-30T00:56:27;9.07;;;3.17;;
82871;SDS011;72646;43.596;1.428;2024-01-30T00:58:53;8.68;;;3.17;;
82871;SDS011;72646;43.596;1.428;2024-01-30T01:01:18;8.18;;;3.10;;
82871;SDS011;72646;43.596;1.428;2024-01-30T01:03:44;8.38;;;3.05;;
82871;SDS011;72646;43.596;1.428;2024-01-30T01:06:09;9.10;;;3.10;;
82871;SDS011;72646;43.596;1.428;2024-01-30T01:08:35;9.00;;;2.78;;
82871;SDS011;72646;43.596;1.428;2024-01-30T01:11:01;7.03;;;2.83;;
82871;SDS011;72646;43.596;1.428;2024-01-30T01:13:26;8.63;;;3.05;;
82871;SDS011;72646;43.596;1.428;2024-01-30T01:15:51;6.90;;;2.70;;
82871;SDS011;72646;43.596;1.428;2024-01-30T01:18:17;7.47;;;2.70;;
82871;SDS011;72646;43.596;1.428;2024-01-30T01:20:42;8.68;;;2.90;;
82871;SDS011;72646;43.596;1.428;2024-01-30T01:23:07;8.77;;;3.10;;
82871;SDS011;72646;43.596;1.428;2024-01-30T01:25:33;9.55;;;3.40;;
82871;SDS011;72646;43.596;1.428;2024-01-30T01:27:58;8.15;;;3.00;;
82871;SDS011;72646;43.596;1.428;2024-01-30T01:30:26;7.97;;;2.80;;
82871;SDS011;72646;43.596;1.428;2024-01-30T01:32:51;7.43;;;2.90;;
82871;SDS011;72646;43.596;1.428;2024-01-30T01:35:22;7.25;;;3.03;;
82871;SDS011;72646;43.596;1.428;2024-01-30T01:37:49;8.05;;;2.92;;
82871;SDS011;72646;43.596;1.428;2024-01-30T01:40:20;8.63;;;3.30;;
82871;SDS011;72646;43.596;1.428;2024-01-30T01:42:47;8.35;;;3.05;;
82871;SDS011;72646;43.596;1.428;2024-01-30T01:45:13;9.30;;;3.10;;
82871;SDS011;72646;43.596;1.428;2024-01-30T01:47:39;6.63;;;2.55;;
82871;SDS011;72646;43.596;1.428;2024-01-30T01:50:04;7.65;;;2.85;;
82871;SDS011;72646;43.596;1.428;2024-01-30T01:52:30;7.38;;;3.10;;
82871;SDS011;72646;43.596;1.428;2024-01-30T01:54:56;8.27;;;3.08;;
82871;SDS011;72646;43.596;1.428;2024-01-30T01:57:21;8.80;;;3.10;;
82871;SDS011;72646;43.596;1.428;2024-01-30T01:59:47;8.32;;;2.90;;
82871;SDS011;72646;43.596;1.428;2024-01-30T02:02:13;8.75;;;3.17;;
82871;SDS011;72646;43.596;1.428;2024-01-30T02:04:40;7.05;;;3.00;;
82871;SDS011;72646;43.596;1.428;2024-01-30T02:07:06;7.60;;;2.78;;
82871;SDS011;72646;43.596;1.428;2024-01-30T02:09:32;7.70;;;2.80;;
82871;SDS011;72646;43.596;1.428;2024-01-30T02:11:57;6.80;;;2.53;;
82871;SDS011;72646;43.596;1.428;2024-01-30T02:14:23;7.43;;;3.00;;
82871;SDS011;72646;43.596;1.428;2024-01-30T02:16:48;9.60;;;2.92;;
82871;SDS011;72646;43.596;1.428;2024-01-30T02:19:14;7.22;;;2.70;;
82871;SDS011;72646;43.596;1.428;2024-01-30T02:21:39;7.35;;;3.35;;
82871;SDS011;72646;43.596;1.428;2024-01-30T02:24:04;8.27;;;2.88;;
82871;SDS011;72646;43.596;1.428;2024-01-30T02:26:30;7.97;;;2.50;;
82871;SDS011;72646;43.596;1.428;2024-01-30T02:28:56;7.10;;;2.53;;
82871;SDS011;72646;43.596;1.428;2024-01-30T02:31:21;6.63;;;2.40;;
82871;SDS011;72646;43.596;1.428;2024-01-30T02:33:47;7.75;;;2.78;;
82871;SDS011;72646;43.596;1.428;2024-01-30T02:36:12;8.43;;;3.00;;
82871;SDS011;72646;43.596;1.428;2024-01-30T02:38:37;7.03;;;2.78;;
82871;SDS011;72646;43.596;1.428;2024-01-30T02:41:03;9.25;;;2.63;;
82871;SDS011;72646;43.596;1.428;2024-01-30T02:43:28;7.60;;;2.85;;
82871;SDS011;72646;43.596;1.428;2024-01-30T02:45:54;7.22;;;2.95;;
82871;SDS011;72646;43.596;1.428;2024-01-30T02:48:19;7.45;;;2.90;;
82871;SDS011;72646;43.596;1.428;2024-01-30T02:50:44;8.60;;;2.80;;
82871;SDS011;72646;43.596;1.428;2024-01-30T02:53:11;7.00;;;2.70;;
82871;SDS011;72646;43.596;1.428;2024-01-30T02:55:36;7.28;;;2.92;;
82871;SDS011;72646;43.596;1.428;2024-01-30T02:58:01;9.07;;;2.90;;
82871;SDS011;72646;43.596;1.428;2024-01-30T03:00:27;6.75;;;2.40;;
82871;SDS011;72646;43.596;1.428;2024-01-30T03:02:52;8.43;;;2.70;;
82871;SDS011;72646;43.596;1.428;2024-01-30T03:05:18;6.70;;;2.65;;
82871;SDS011;72646;43.596;1.428;2024-01-30T03:07:43;7.18;;;2.55;;
82871;SDS011;72646;43.596;1.428;2024-01-30T03:10:08;7.47;;;2.70;;
82871;SDS011;72646;43.596;1.428;2024-01-30T03:12:34;7.97;;;2.70;;
82871;SDS011;72646;43.596;1.428;2024-01-30T03:14:59;6.85;;;2.65;;
82871;SDS011;72646;43.596;1.428;2024-01-30T03:17:25;6.32;;;2.60;;
82871;SDS011;72646;43.596;1.428;2024-01-30T03:19:50;8.13;;;2.70;;
82871;SDS011;72646;43.596;1.428;2024-01-30T03:22:16;6.80;;;2.50;;
82871;SDS011;72646;43.596;1.428;2024-01-30T03:24:42;7.22;;;2.80;;
82871;SDS011;72646;43.596;1.428;2024-01-30T03:27:08;6.65;;;2.47;;
82871;SDS011;72646;43.596;1.428;2024-01-30T03:29:33;7.85;;;2.95;;
82871;SDS011;72646;43.596;1.428;2024-01-30T03:31:59;7.38;;;2.42;;
82871;SDS011;72646;43.596;1.428;2024-01-30T03:34:24;7.28;;;2.50;;
82871;SDS011;72646;43.596;1.428;2024-01-30T03:36:49;8.02;;;2.58;;
82871;SDS011;72646;43.596;1.428;2024-01-30T03:39:15;6.47;;;2.50;;
82871;SDS011;72646;43.596;1.428;2024-01-30T03:41:43;6.95;;;2.55;;
82871;SDS011;72646;43.596;1.428;2024-01-30T03:44:09;8.00;;;2.45;;
82871;SDS011;72646;43.596;1.428;2024-01-30T03:46:35;8.10;;;2.55;;
82871;SDS011;72646;43.596;1.428;2024-01-30T03:49:00;8.82;;;2.30;;
82871;SDS011;72646;43.596;1.428;2024-01-30T03:51:25;7.20;;;2.50;;
82871;SDS011;72646;43.596;1.428;2024-01-30T03:53:51;7.03;;;2.38;;
82871;SDS011;72646;43.596;1.428;2024-01-30T03:56:16;7.63;;;2.53;;
82871;SDS011;72646;43.596;1.428;2024-01-30T03:58:42;7.72;;;2.60;;
82871;SDS011;72646;43.596;1.428;2024-01-30T04:01:07;7.82;;;2.63;;
82871;SDS011;72646;43.596;1.428;2024-01-30T04:03:37;7.35;;;2.30;;
82871;SDS011;72646;43.596;1.428;2024-01-30T04:06:03;7.07;;;2.40;;
82871;SDS011;72646;43.596;1.428;2024-01-30T04:08:29;7.32;;;2.30;;
82871;SDS011;72646;43.596;1.428;2024-01-30T04:10:55;8.18;;;2.47;;
82871;SDS011;72646;43.596;1.428;2024-01-30T04:13:20;8.55;;;2.88;;
82871;SDS011;72646;43.596;1.428;2024-01-30T04:15:45;7.80;;;2.40;;
82871;SDS011;72646;43.596;1.428;2024-01-30T04:18:11;8.40;;;2.40;;
82871;SDS011;72646;43.596;1.428;2024-01-30T04:20:36;6.32;;;2.40;;
82871;SDS011;72646;43.596;1.428;2024-01-30T04:23:02;7.05;;;2.33;;
82871;SDS011;72646;43.596;1.428;2024-01-30T04:25:27;7.22;;;2.55;;
82871;SDS011;72646;43.596;1.428;2024-01-30T04:27:53;7.20;;;2.25;;
82871;SDS011;72646;43.596;1.428;2024-01-30T04:30:18;7.63;;;2.42;;
82871;SDS011;72646;43.596;1.428;2024-01-30T04:32:43;8.50;;;2.70;;
82871;SDS011;72646;43.596;1.428;2024-01-30T04:35:09;7.95;;;2.58;;
82871;SDS011;72646;43.596;1.428;2024-01-30T04:37:34;7.50;;;2.65;;
82871;SDS011;72646;43.596;1.428;2024-01-30T04:40:00;10.70;;;2.72;;
82871;SDS011;72646;43.596;1.428;2024-01-30T04:42:25;7.60;;;2.42;;
82871;SDS011;72646;43.596;1.428;2024-01-30T04:44:51;6.80;;;2.40;;
82871;SDS011;72646;43.596;1.428;2024-01-30T04:47:16;6.68;;;2.47;;
82871;SDS011;72646;43.596;1.428;2024-01-30T04:49:42;7.70;;;2.72;;
82871;SDS011;72646;43.596;1.428;2024-01-30T04:52:08;7.55;;;2.35;;
82871;SDS011;72646;43.596;1.428;2024-01-30T04:54:34;7.40;;;2.45;;
82871;SDS011;72646;43.596;1.428;2024-01-30T04:57:00;6.80;;;2.53;;
82871;SDS011;72646;43.596;1.428;2024-01-30T04:59:25;6.43;;;2.25;;
82871;SDS011;72646;43.596;1.428;2024-01-30T05:01:51;7.57;;;2.50;;
82871;SDS011;72646;43.596;1.428;2024-01-30T05:04:16;8.10;;;2.40;;
82871;SDS011;72646;43.596;1.428;2024-01-30T05:06:42;8.18;;;2.10;;
82871;SDS011;72646;43.596;1.428;2024-01-30T05:09:08;6.43;;;2.40;;
82871;SDS011;72646;43.596;1.428;2024-01-30T05:11:37;7.72;;;2.15;;
82871;SDS011;72646;43.596;1.428;2024-01-30T05:14:04;8.20;;;2.38;;
82871;SDS011;72646;43.596;1.428;2024-01-30T05:16:29;7.40;;;2.47;;
82871;SDS011;72646;43.596;1.428;2024-01-30T05:18:55;7.18;;;2.35;;
82871;SDS011;72646;43.596;1.428;2024-01-30T05:21:20;5.93;;;2.22;;
82871;SDS011;72646;43.596;1.428;2024-01-30T05:23:45;8.10;;;2.90;;
82871;SDS011;72646;43.596;1.428;2024-01-30T05:26:11;7.85;;;2.40;;
82871;SDS011;72646;43.596;1.428;2024-01-30T05:28:36;8.10;;;2.40;;
82871;SDS011;72646;43.596;1.428;2024-01-30T05:31:02;7.45;;;2.28;;
82871;SDS011;72646;43.596;1.428;2024-01-30T05:33:27;6.57;;;2.33;;
82871;SDS011;72646;43.596;1.428;2024-01-30T05:35:53;6.80;;;2.70;;
82871;SDS011;72646;43.596;1.428;2024-01-30T05:38:19;6.68;;;2.00;;
82871;SDS011;72646;43.596;1.428;2024-01-30T05:40:45;6.88;;;2.40;;
82871;SDS011;72646;43.596;1.428;2024-01-30T05:43:11;6.07;;;2.10;;
82871;SDS011;72646;43.596;1.428;2024-01-30T05:45:36;8.05;;;2.40;;
82871;SDS011;72646;43.596;1.428;2024-01-30T05:48:02;7.80;;;2.40;;
82871;SDS011;72646;43.596;1.428;2024-01-30T05:50:27;6.28;;;2.15;;
82871;SDS011;72646;43.596;1.428;2024-01-30T05:52:53;7.53;;;2.33;;
82871;SDS011;72646;43.596;1.428;2024-01-30T05:55:18;6.93;;;2.10;;
82871;SDS011;72646;43.596;1.428;2024-01-30T05:57:44;6.63;;;2.47;;
82871;SDS011;72646;43.596;1.428;2024-01-30T06:00:09;6.78;;;2.28;;
82871;SDS011;72646;43.596;1.428;2024-01-30T06:02:35;6.50;;;2.20;;
82871;SDS011;72646;43.596;1.428;2024-01-30T06:05:00;8.38;;;2.75;;
82871;SDS011;72646;43.596;1.428;2024-01-30T06:07:26;6.57;;;1.95;;
82871;SDS011;72646;43.596;1.428;2024-01-30T06:09:51;8.02;;;2.40;;
82871;SDS011;72646;43.596;1.428;2024-01-30T06:12:17;5.97;;;2.10;;
82871;SDS011;72646;43.596;1.428;2024-01-30T06:14:42;9.30;;;2.30;;
82871;SDS011;72646;43.596;1.428;2024-01-30T06:17:08;8.23;;;2.70;;
82871;SDS011;72646;43.596;1.428;2024-01-30T06:19:33;7.70;;;2.20;;
82871;SDS011;72646;43.596;1.428;2024-01-30T06:21:59;7.43;;;2.72;;
82871;SDS011;72646;43.596;1.428;2024-01-30T06:24:25;7.20;;;2.33;;
82871;SDS011;72646;43.596;1.428;2024-01-30T06:26:50;7.13;;;2.20;;
82871;SDS011;72646;43.596;1.428;2024-01-30T06:29:15;6.95;;;2.35;;
82871;SDS011;72646;43.596;1.428;2024-01-30T06:31:41;6.75;;;2.03;;
82871;SDS011;72646;43.596;1.428;2024-01-30T06:34:08;7.40;;;2.50;;
82871;SDS011;72646;43.596;1.428;2024-01-30T06:36:33;7.85;;;2.45;;
82871;SDS011;72646;43.596;1.428;2024-01-30T06:38:59;8.15;;;2.38;;
82871;SDS011;72646;43.596;1.428;2024-01-30T06:41:25;6.97;;;2.33;;
82871;SDS011;72646;43.596;1.428;2024-01-30T06:43:50;8.50;;;2.25;;
82871;SDS011;72646;43.596;1.428;2024-01-30T06:46:15;7.82;;;2.40;;
82871;SDS011;72646;43.596;1.428;2024-01-30T06:48:41;7.00;;;2.42;;
82871;SDS011;72646;43.596;1.428;2024-01-30T06:51:09;8.48;;;2.65;;
82871;SDS011;72646;43.596;1.428;2024-01-30T06:53:35;7.60;;;2.17;;
82871;SDS011;72646;43.596;1.428;2024-01-30T06:56:01;7.30;;;2.42;;
82871;SDS011;72646;43.596;1.428;2024-01-30T06:58:26;8.13;;;2.38;;
82871;SDS011;72646;43.596;1.428;2024-01-30T07:00:51;7.50;;;2.30;;
82871;SDS011;72646;43.596;1.428;2024-01-30T07:03:17;7.43;;;2.42;;
82871;SDS011;72646;43.596;1.428;2024-01-30T07:05:42;6.97;;;2.38;;
82871;SDS011;72646;43.596;1.428;2024-01-30T07:08:08;8.50;;;2.40;;
82871;SDS011;72646;43.596;1.428;2024-01-30T07:10:33;6.50;;;2.08;;
82871;SDS011;72646;43.596;1.428;2024-01-30T07:13:00;6.22;;;2.50;;
82871;SDS011;72646;43.596;1.428;2024-01-30T07:15:26;8.30;;;2.38;;
82871;SDS011;72646;43.596;1.428;2024-01-30T07:17:51;8.18;;;2.38;;
82871;SDS011;72646;43.596;1.428;2024-01-30T07:20:16;9.02;;;2.67;;
82871;SDS011;72646;43.596;1.428;2024-01-30T07:22:44;7.72;;;2.28;;
82871;SDS011;72646;43.596;1.428;2024-01-30T07:25:10;7.57;;;2.33;;
82871;SDS011;72646;43.596;1.428;2024-01-30T07:27:36;6.30;;;2.20;;
82871;SDS011;72646;43.596;1.428;2024-01-30T07:30:02;7.80;;;2.63;;
82871;SDS011;72646;43.596;1.428;2024-01-30T07:32:27;7.18;;;2.30;;
82871;SDS011;72646;43.596;1.428;2024-01-30T07:34:53;7.10;;;2.30;;
82871;SDS011;72646;43.596;1.428;2024-01-30T07:37:18;9.88;;;2.42;;
82871;SDS011;72646;43.596;1.428;2024-01-30T07:39:44;7.47;;;2.30;;
82871;SDS011;72646;43.596;1.428;2024-01-30T07:42:09;7.00;;;2.20;;
82871;SDS011;72646;43.596;1.428;2024-01-30T07:44:35;7.40;;;2.25;;
82871;SDS011;72646;43.596;1.428;2024-01-30T07:47:01;7.03;;;2.30;;
82871;SDS011;72646;43.596;1.428;2024-01-30T07:49:28;6.32;;;2.10;;
82871;SDS011;72646;43.596;1.428;2024-01-30T07:51:53;7.45;;;2.42;;
82871;SDS011;72646;43.596;1.428;2024-01-30T07:54:19;7.03;;;2.42;;
82871;SDS011;72646;43.596;1.428;2024-01-30T07:56:44;6.80;;;2.25;;
82871;SDS011;72646;43.596;1.428;2024-01-30T07:59:10;7.47;;;2.50;;
82871;SDS011;72646;43.596;1.428;2024-01-30T08:01:36;8.55;;;2.85;;
82871;SDS011;72646;43.596;1.428;2024-01-30T08:04:01;7.43;;;2.30;;
82871;SDS011;72646;43.596;1.428;2024-01-30T08:06:27;6.43;;;2.22;;
82871;SDS011;72646;43.596;1.428;2024-01-30T08:08:52;7.32;;;2.30;;
82871;SDS011;72646;43.596;1.428;2024-01-30T08:11:20;7.18;;;2.50;;
82871;SDS011;72646;43.596;1.428;2024-01-30T08:13:50;7.10;;;2.50;;
82871;SDS011;72646;43.596;1.428;2024-01-30T08:16:16;7.75;;;2.55;;
82871;SDS011;72646;43.596;1.428;2024-01-30T08:18:42;9.48;;;2.28;;
82871;SDS011;72646;43.596;1.428;2024-01-30T08:21:07;7.65;;;2.78;;
82871;SDS011;72646;43.596;1.428;2024-01-30T08:23:34;7.43;;;1.98;;
82871;SDS011;72646;43.596;1.428;2024-01-30T08:25:59;6.20;;;1.80;;
82871;SDS011;72646;43.596;1.428;2024-01-30T08:28:25;7.43;;;2.00;;
82871;SDS011;72646;43.596;1.428;2024-01-30T08:30:51;6.63;;;2.13;;
82871;SDS011;72646;43.596;1.428;2024-01-30T08:33:16;7.57;;;2.20;;
82871;SDS011;72646;43.596;1.428;2024-01-30T08:35:42;6.78;;;2.17;;
82871;SDS011;72646;43.596;1.428;2024-01-30T08:38:07;8.88;;;2.28;;
82871;SDS011;72646;43.596;1.428;2024-01-30T08:40:32;7.10;;;2.35;;
82871;SDS011;72646;43.596;1.428;2024-01-30T08:42:58;6.55;;;1.90;;
82871;SDS011;72646;43.596;1.428;2024-01-30T08:45:23;7.35;;;2.47;;
82871;SDS011;72646;43.596;1.428;2024-01-30T08:47:49;6.32;;;2.63;;
82871;SDS011;72646;43.596;1.428;2024-01-30T08:50:14;7.63;;;2.15;;
82871;SDS011;72646;43.596;1.428;2024-01-30T08:52:40;8.68;;;2.50;;
82871;SDS011;72646;43.596;1.428;2024-01-30T08:55:05;6.70;;;2.25;;
82871;SDS011;72646;43.596;1.428;2024-01-30T08:57:31;6.95;;;2.20;;
82871;SDS011;72646;43.596;1.428;2024-01-30T08:59:56;6.68;;;2.28;;
82871;SDS011;72646;43.596;1.428;2024-01-30T09:02:21;8.23;;;2.40;;
82871;SDS011;72646;43.596;1.428;2024-01-30T09:04:47;8.13;;;2.40;;
82871;SDS011;72646;43.596;1.428;2024-01-30T09:07:12;8.00;;;2.28;;
82871;SDS011;72646;43.596;1.428;2024-01-30T09:09:39;7.28;;;2.45;;
82871;SDS011;72646;43.596;1.428;2024-01-30T09:12:06;7.30;;;2.28;;
82871;SDS011;72646;43.596;1.428;2024-01-30T09:14:32;8.45;;;2.55;;
82871;SDS011;72646;43.596;1.428;2024-01-30T09:16:57;8.15;;;2.40;;
82871;SDS011;72646;43.596;1.428;2024-01-30T09:19:23;7.90;;;2.15;;
82871;SDS011;72646;43.596;1.428;2024-01-30T09:21:48;6.95;;;2.20;;
82871;SDS011;72646;43.596;1.428;2024-01-30T09:24:13;9.20;;;2.70;;
82871;SDS011;72646;43.596;1.428;2024-01-30T09:26:39;6.53;;;2.40;;
82871;SDS011;72646;43.596;1.428;2024-01-30T09:29:04;7.18;;;1.90;;
82871;SDS011;72646;43.596;1.428;2024-01-30T09:31:29;7.25;;;2.00;;
82871;SDS011;72646;43.596;1.428;2024-01-30T09:33:55;7.25;;;2.10;;
82871;SDS011;72646;43.596;1.428;2024-01-30T09:36:20;7.78;;;2.40;;
82871;SDS011;72646;43.596;1.428;2024-01-30T09:38:47;8.32;;;2.10;;
82871;SDS011;72646;43.596;1.428;2024-01-30T09:41:12;8.68;;;2.50;;
82871;SDS011;72646;43.596;1.428;2024-01-30T09:43:38;8.15;;;2.60;;
82871;SDS011;72646;43.596;1.428;2024-01-30T09:46:07;7.20;;;2.40;;
82871;SDS011;72646;43.596;1.428;2024-01-30T09:48:38;7.88;;;2.15;;
82871;SDS011;72646;43.596;1.428;2024-01-30T09:51:06;8.45;;;2.50;;
82871;SDS011;72646;43.596;1.428;2024-01-30T09:53:33;7.38;;;2.30;;
82871;SDS011;72646;43.596;1.428;2024-01-30T09:55:58;7.72;;;2.40;;
82871;SDS011;72646;43.596;1.428;2024-01-30T09:58:25;8.45;;;2.47;;
82871;SDS011;72646;43.596;1.428;2024-01-30T10:00:51;7.57;;;2.60;;
82871;SDS011;72646;43.596;1.428;2024-01-30T10:03:18;6.65;;;2.08;;
82871;SDS011;72646;43.596;1.428;2024-01-30T10:08:16;7.85;;;1.90;;
82871;SDS011;72646;43.596;1.428;2024-01-30T10:10:45;8.77;;;2.60;;
82871;SDS011;72646;43.596;1.428;2024-01-30T10:13:11;7.55;;;2.28;;
82871;SDS011;72646;43.596;1.428;2024-01-30T10:15:37;6.70;;;2.20;;
82871;SDS011;72646;43.596;1.428;2024-01-30T10:18:04;7.32;;;2.33;;
82871;SDS011;72646;43.596;1.428;2024-01-30T10:20:31;8.18;;;2.78;;
82871;SDS011;72646;43.596;1.428;2024-01-30T10:22:57;7.90;;;2.20;;
82871;SDS011;72646;43.596;1.428;2024-01-30T10:25:23;7.07;;;2.20;;
82871;SDS011;72646;43.596;1.428;2024-01-30T10:27:52;9.18;;;2.55;;
82871;SDS011;72646;43.596;1.428;2024-01-30T10:30:19;7.15;;;2.80;;
82871;SDS011;72646;43.596;1.428;2024-01-30T10:32:44;37.15;;;19.77;;
82871;SDS011;72646;43.596;1.428;2024-01-30T10:35:10;52.70;;;29.67;;
82871;SDS011;72646;43.596;1.428;2024-01-30T10:37:35;63.80;;;35.03;;
82871;SDS011;72646;43.596;1.428;2024-01-30T10:40:02;65.57;;;35.10;;
82871;SDS011;72646;43.596;1.428;2024-01-30T10:42:32;61.75;;;34.63;;
82871;SDS011;72646;43.596;1.428;2024-01-30T10:45:08;58.50;;;34.22;;
82871;SDS011;72646;43.596;1.428;2024-01-30T10:47:37;56.40;;;32.92;;
82871;SDS011;72646;43.596;1.428;2024-01-30T10:50:05;53.25;;;30.23;;
82871;SDS011;72646;43.596;1.428;2024-01-30T10:52:32;54.25;;;30.17;;
82871;SDS011;72646;43.596;1.428;2024-01-30T10:54:58;55.00;;;29.23;;
82871;SDS011;72646;43.596;1.428;2024-01-30T10:57:25;52.53;;;27.13;;
82871;SDS011;72646;43.596;1.428;2024-01-30T10:59:58;47.33;;;25.25;;
82871;SDS011;72646;43.596;1.428;2024-01-30T11:02:25;42.40;;;24.38;;
82871;SDS011;72646;43.596;1.428;2024-01-30T11:04:56;43.97;;;23.45;;
82871;SDS011;72646;43.596;1.428;2024-01-30T11:07:26;40.40;;;22.63;;
82871;SDS011;72646;43.596;1.428;2024-01-30T11:09:54;40.83;;;20.73;;
82871;SDS011;72646;43.596;1.428;2024-01-30T11:12:28;35.45;;;18.90;;
82871;SDS011;72646;43.596;1.428;2024-01-30T11:15:07;32.75;;;17.30;;
82871;SDS011;72646;43.596;1.428;2024-01-30T11:17:54;31.83;;;17.83;;
82871;SDS011;72646;43.596;1.428;2024-01-30T11:22:49;28.77;;;15.80;;
82871;SDS011;72646;43.596;1.428;2024-01-30T11:25:17;33.85;;;15.85;;
82871;SDS011;72646;43.596;1.428;2024-01-30T11:27:44;28.35;;;15.90;;
82871;SDS011;72646;43.596;1.428;2024-01-30T11:30:20;28.92;;;13.57;;
82871;SDS011;72646;43.596;1.428;2024-01-30T11:35:51;23.15;;;13.20;;
82871;SDS011;72646;43.596;1.428;2024-01-30T11:38:16;27.55;;;13.82;;
82871;SDS011;72646;43.596;1.428;2024-01-30T11:40:42;21.35;;;12.15;;
82871;SDS011;72646;43.596;1.428;2024-01-30T11:43:08;22.55;;;11.63;;
82871;SDS011;72646;43.596;1.428;2024-01-30T11:45:35;22.23;;;11.55;;
82871;SDS011;72646;43.596;1.428;2024-01-30T11:48:01;22.00;;;11.60;;
82871;SDS011;72646;43.596;1.428;2024-01-30T11:50:31;23.95;;;11.32;;
82871;SDS011;72646;43.596;1.428;2024-01-30T11:55:23;22.88;;;10.95;;
82871;SDS011;72646;43.596;1.428;2024-01-30T11:57:48;20.65;;;10.85;;
82871;SDS011;72646;43.596;1.428;2024-01-30T12:00:17;20.55;;;10.25;;
82871;SDS011;72646;43.596;1.428;2024-01-30T12:02:50;20.48;;;11.02;;
82871;SDS011;72646;43.596;1.428;2024-01-30T12:05:26;24.55;;;10.95;;
82871;SDS011;72646;43.596;1.428;2024-01-30T12:10:17;21.10;;;9.77;;
82871;SDS011;72646;43.596;1.428;2024-01-30T12:12:48;19.95;;;9.57;;
82871;SDS011;72646;43.596;1.428;2024-01-30T12:17:40;20.10;;;9.05;;
82871;SDS011;72646;43.596;1.428;2024-01-30T12:20:07;18.05;;;8.88;;
82871;SDS011;72646;43.596;1.428;2024-01-30T12:22:37;17.70;;;9.18;;
82871;SDS011;72646;43.596;1.428;2024-01-30T12:25:04;19.60;;;9.20;;
82871;SDS011;72646;43.596;1.428;2024-01-30T12:27:33;17.75;;;8.75;;
82871;SDS011;72646;43.596;1.428;2024-01-30T12:29:58;18.00;;;8.82;;
82871;SDS011;72646;43.596;1.428;2024-01-30T12:32:24;18.65;;;8.90;;
82871;SDS011;72646;43.596;1.428;2024-01-30T12:34:49;16.35;;;8.35;;
82871;SDS011;72646;43.596;1.428;2024-01-30T12:37:15;19.20;;;9.15;;
82871;SDS011;72646;43.596;1.428;2024-01-30T12:39:48;18.38;;;8.45;;
82871;SDS011;72646;43.596;1.428;2024-01-30T12:42:14;17.35;;;8.75;;
82871;SDS011;72646;43.596;1.428;2024-01-30T12:44:40;16.40;;;7.72;;
82871;SDS011;72646;43.596;1.428;2024-01-30T12:47:08;16.73;;;7.75;;
82871;SDS011;72646;43.596;1.428;2024-01-30T12:49:34;17.83;;;8.07;;
82871;SDS011;72646;43.596;1.428;2024-01-30T12:51:59;13.98;;;6.82;;
82871;SDS011;72646;43.596;1.428;2024-01-30T12:54:24;15.48;;;7.43;;
82871;SDS011;72646;43.596;1.428;2024-01-30T12:56:50;14.13;;;6.70;;
82871;SDS011;72646;43.596;1.428;2024-01-30T12:59:15;16.38;;;7.35;;
82871;SDS011;72646;43.596;1.428;2024-01-30T13:01:41;14.25;;;6.57;;
82871;SDS011;72646;43.596;1.428;2024-01-30T13:04:06;14.43;;;6.75;;
82871;SDS011;72646;43.596;1.428;2024-01-30T13:06:32;14.52;;;7.00;;
82871;SDS011;72646;43.596;1.428;2024-01-30T13:08:57;15.02;;;6.57;;
82871;SDS011;72646;43.596;1.428;2024-01-30T13:11:23;12.10;;;6.25;;
82871;SDS011;72646;43.596;1.428;2024-01-30T13:13:50;14.63;;;6.28;;
82871;SDS011;72646;43.596;1.428;2024-01-30T13:16:15;14.80;;;5.55;;
82871;SDS011;72646;43.596;1.428;2024-01-30T13:18:41;13.40;;;5.57;;
82871;SDS011;72646;43.596;1.428;2024-01-30T13:21:06;12.88;;;6.22;;
82871;SDS011;72646;43.596;1.428;2024-01-30T13:23:32;13.18;;;6.05;;
82871;SDS011;72646;43.596;1.428;2024-01-30T13:25:57;12.25;;;5.65;;
82871;SDS011;72646;43.596;1.428;2024-01-30T13:28:23;15.02;;;5.57;;
82871;SDS011;72646;43.596;1.428;2024-01-30T13:30:50;12.98;;;5.72;;
82871;SDS011;72646;43.596;1.428;2024-01-30T13:33:16;10.73;;;4.82;;
82871;SDS011;72646;43.596;1.428;2024-01-30T13:35:41;11.18;;;5.45;;
82871;SDS011;72646;43.596;1.428;2024-01-30T13:38:07;12.18;;;4.75;;
82871;SDS011;72646;43.596;1.428;2024-01-30T13:40:33;12.60;;;5.25;;
82871;SDS011;72646;43.596;1.428;2024-01-30T13:42:58;11.00;;;5.40;;
82871;SDS011;72646;43.596;1.428;2024-01-30T13:45:24;11.93;;;5.30;;
82871;SDS011;72646;43.596;1.428;2024-01-30T13:47:49;10.63;;;5.07;;
82871;SDS011;72646;43.596;1.428;2024-01-30T13:50:14;12.23;;;5.10;;
82871;SDS011;72646;43.596;1.428;2024-01-30T13:52:41;15.30;;;4.88;;
82871;SDS011;72646;43.596;1.428;2024-01-30T13:55:08;11.48;;;4.90;;
82871;SDS011;72646;43.596;1.428;2024-01-30T13:57:34;14.32;;;5.65;;
82871;SDS011;72646;43.596;1.428;2024-01-30T14:00:01;17.50;;;5.93;;
82871;SDS011;72646;43.596;1.428;2024-01-30T14:02:30;18.45;;;7.32;;
82871;SDS011;72646;43.596;1.428;2024-01-30T14:04:56;17.67;;;7.32;;
82871;SDS011;72646;43.596;1.428;2024-01-30T14:07:21;16.75;;;7.05;;
82871;SDS011;72646;43.596;1.428;2024-01-30T14:09:47;21.30;;;8.35;;
82871;SDS011;72646;43.596;1.428;2024-01-30T14:14:38;16.63;;;7.63;;
82871;SDS011;72646;43.596;1.428;2024-01-30T14:17:04;20.75;;;7.93;;
82871;SDS011;72646;43.596;1.428;2024-01-30T14:19:32;17.17;;;6.85;;
82871;SDS011;72646;43.596;1.428;2024-01-30T14:21:57;15.88;;;6.68;;
82871;SDS011;72646;43.596;1.428;2024-01-30T14:24:23;17.13;;;6.45;;
82871;SDS011;72646;43.596;1.428;2024-01-30T14:26:48;15.38;;;6.10;;
82871;SDS011;72646;43.596;1.428;2024-01-30T14:29:14;13.10;;;5.65;;
82871;SDS011;72646;43.596;1.428;2024-01-30T14:31:39;14.57;;;5.95;;
82871;SDS011;72646;43.596;1.428;2024-01-30T14:34:04;13.27;;;6.15;;
82871;SDS011;72646;43.596;1.428;2024-01-30T14:36:30;11.30;;;5.13;;
82871;SDS011;72646;43.596;1.428;2024-01-30T14:38:55;13.90;;;5.63;;
82871;SDS011;72646;43.596;1.428;2024-01-30T14:41:21;12.60;;;5.32;;
82871;SDS011;72646;43.596;1.428;2024-01-30T14:43:47;13.38;;;5.07;;
82871;SDS011;72646;43.596;1.428;2024-01-30T14:46:12;11.65;;;4.90;;
82871;SDS011;72646;43.596;1.428;2024-01-30T14:48:38;12.15;;;4.97;;
82871;SDS011;72646;43.596;1.428;2024-01-30T14:51:03;11.93;;;4.30;;
82871;SDS011;72646;43.596;1.428;2024-01-30T14:53:29;13.68;;;4.88;;